SBI weather

Sambailo Airport
Koundara, Boké Region, Guinea

Public forecast

Using degrees Celsius for public forecast. Weather courtesy of forecast.io.

METAR (pilot weather report)

Report is more than 2 hours old.

Closest report is Kédougou Airport, 66.7 nm (123.5 km) E. Retrieved 2019/02/16 18:00 UTC (5 hours ago):

GOTK 161800Z 36006KT CAVOK 39/11 Q1008

TAF (pilot weather forecast)

Closest forecast is Osvaldo Vieira International Airport, 140.7 nm (260.6 km) WSW. Retrieved 2019/02/16 18:51 UTC (4 hours ago):

TAF GGOV 161700Z 1618/1718 36008KT 8000 NSC